createdAt,value
2019-02-16T00:00:09.527Z,2.70
2019-02-16T00:02:37.435Z,2.80
2019-02-16T00:05:05.612Z,2.70
2019-02-16T00:07:33.539Z,2.40
2019-02-16T00:10:01.469Z,2.30
2019-02-16T00:12:29.337Z,2.30
2019-02-16T00:14:57.223Z,2.40
2019-02-16T00:17:25.138Z,2.30
2019-02-16T00:19:52.963Z,2.20
2019-02-16T00:22:21.061Z,2.20
2019-02-16T00:24:48.885Z,2.20
2019-02-16T00:27:16.747Z,2.20
2019-02-16T00:29:44.628Z,2.20
2019-02-16T00:32:12.507Z,2.20
2019-02-16T00:34:40.406Z,2.10
2019-02-16T00:37:08.351Z,2.20
2019-02-16T00:39:36.463Z,2.10
2019-02-16T00:42:04.347Z,2.10
2019-02-16T00:44:32.323Z,2.30
2019-02-16T00:47:00.169Z,2.40
2019-02-16T00:49:28.037Z,2.30
2019-02-16T00:51:56.178Z,2.10
2019-02-16T00:54:24.030Z,1.90
2019-02-16T00:56:51.956Z,1.90
2019-02-16T00:59:19.832Z,1.80
2019-02-16T01:01:47.696Z,1.70
2019-02-16T01:04:15.551Z,1.70
2019-02-16T01:06:43.427Z,1.80
2019-02-16T01:09:11.283Z,1.80
2019-02-16T01:11:39.147Z,1.80
2019-02-16T01:14:07.123Z,1.70
2019-02-16T01:16:35.022Z,1.70
2019-02-16T01:19:02.859Z,1.60
2019-02-16T01:21:30.717Z,1.70
2019-02-16T01:23:58.560Z,1.60
2019-02-16T01:26:26.702Z,1.60
2019-02-16T01:28:54.597Z,1.70
2019-02-16T01:31:22.465Z,1.60
2019-02-16T01:33:50.353Z,1.60
2019-02-16T01:36:18.319Z,1.60
2019-02-16T01:38:46.187Z,1.50
2019-02-16T01:41:14.448Z,1.50
2019-02-16T01:43:42.263Z,1.50
2019-02-16T01:46:10.140Z,1.50
2019-02-16T01:48:38.049Z,1.50
2019-02-16T01:51:05.885Z,1.40
2019-02-16T01:53:33.702Z,1.40
2019-02-16T01:56:01.628Z,1.40
2019-02-16T01:58:29.473Z,1.40
2019-02-16T02:00:57.333Z,1.50
2019-02-16T02:03:25.184Z,1.40
2019-02-16T02:05:53.010Z,1.40
2019-02-16T02:08:20.878Z,1.30
2019-02-16T02:10:48.766Z,1.20
2019-02-16T02:13:16.620Z,1.20
2019-02-16T02:15:44.483Z,1.10
2019-02-16T02:18:12.343Z,1.10
2019-02-16T02:20:41.169Z,1.10
2019-02-16T02:23:09.001Z,1.00
2019-02-16T02:25:36.935Z,1.00
2019-02-16T02:28:04.797Z,1.00
2019-02-16T02:30:33.972Z,1.10
2019-02-16T02:33:02.004Z,1.10
2019-02-16T02:35:29.850Z,1.00
2019-02-16T02:37:57.684Z,0.90
2019-02-16T02:40:25.687Z,1.00
2019-02-16T02:42:53.613Z,0.90
2019-02-16T02:45:21.485Z,0.90
2019-02-16T02:47:49.494Z,0.80
2019-02-16T02:50:17.301Z,0.80
2019-02-16T02:52:45.185Z,0.80
2019-02-16T02:55:13.049Z,0.80
2019-02-16T02:57:40.902Z,0.90
2019-02-16T03:00:08.989Z,0.90
2019-02-16T03:02:36.826Z,0.90
2019-02-16T03:05:06.210Z,0.90
2019-02-16T03:07:34.086Z,1.00
2019-02-16T03:10:02.054Z,0.90
2019-02-16T03:12:29.968Z,0.90
2019-02-16T03:14:57.828Z,0.90
2019-02-16T03:17:25.661Z,0.80
2019-02-16T03:19:53.527Z,1.00
2019-02-16T03:22:21.488Z,0.80
2019-02-16T03:24:49.344Z,0.70
2019-02-16T03:28:21.417Z,0.80
2019-02-16T03:31:38.121Z,0.70
2019-02-16T03:34:20.641Z,0.60
2019-02-16T03:38:14.084Z,0.60
2019-02-16T03:40:45.185Z,0.60
2019-02-16T03:43:13.086Z,0.50
2019-02-16T03:45:40.936Z,0.60
2019-02-16T03:48:08.779Z,0.70
2019-02-16T03:50:36.608Z,0.60
2019-02-16T03:53:04.462Z,0.50
2019-02-16T03:55:32.300Z,0.50
2019-02-16T03:58:00.197Z,0.40
2019-02-16T04:00:28.039Z,0.40
2019-02-16T04:02:55.867Z,0.50
2019-02-16T04:05:23.727Z,0.60
2019-02-16T04:07:51.627Z,0.60
2019-02-16T04:10:19.483Z,0.60
2019-02-16T04:12:47.364Z,0.60
2019-02-16T04:15:15.283Z,0.50
2019-02-16T04:17:43.185Z,0.50
2019-02-16T04:20:11.017Z,0.50
2019-02-16T04:22:38.905Z,0.50
2019-02-16T04:25:06.725Z,0.40
2019-02-16T04:27:34.580Z,0.40
2019-02-16T04:30:02.554Z,0.40
2019-02-16T04:32:30.407Z,0.40
2019-02-16T04:34:58.256Z,0.20
2019-02-16T04:37:26.172Z,0.30
2019-02-16T04:39:53.987Z,0.30
2019-02-16T04:42:22.549Z,0.30
2019-02-16T04:44:50.410Z,0.30
2019-02-16T04:47:18.263Z,0.30
2019-02-16T04:49:46.101Z,0.30
2019-02-16T04:52:13.945Z,0.30
2019-02-16T04:54:41.807Z,0.30
2019-02-16T04:57:09.718Z,0.20
2019-02-16T04:59:37.577Z,0.20
2019-02-16T05:02:05.443Z,0.20
2019-02-16T05:04:33.278Z,0.20
2019-02-16T05:07:01.144Z,0.20
2019-02-16T05:09:28.942Z,0.30
2019-02-16T05:11:56.798Z,0.30
2019-02-16T05:14:24.666Z,0.20
2019-02-16T05:16:52.498Z,0.20
2019-02-16T05:19:20.359Z,0.20
2019-02-16T05:21:48.224Z,0.20
2019-02-16T05:24:16.120Z,0.20
2019-02-16T05:26:43.950Z,0.40
2019-02-16T05:29:11.851Z,0.30
2019-02-16T05:31:39.656Z,0.20
2019-02-16T05:34:07.511Z,0.20
2019-02-16T05:36:35.369Z,0.20
2019-02-16T05:39:05.006Z,0.10
2019-02-16T05:41:32.924Z,0.10
2019-02-16T05:44:00.794Z,0.10
2019-02-16T05:46:28.642Z,0.10
2019-02-16T05:48:56.500Z,0.00
2019-02-16T05:51:24.348Z,0.00
2019-02-16T05:53:52.356Z,0.00
2019-02-16T05:56:20.177Z,0.00
2019-02-16T05:58:48.150Z,0.00
2019-02-16T06:01:16.000Z,0.10
2019-02-16T06:03:43.837Z,0.10
2019-02-16T06:06:11.718Z,0.10
2019-02-16T06:08:39.710Z,0.10
2019-02-16T06:11:07.695Z,0.10
2019-02-16T06:13:35.609Z,0.10
2019-02-16T06:16:03.477Z,0.10
2019-02-16T06:18:31.344Z,0.20
2019-02-16T06:20:59.436Z,0.20
2019-02-16T06:23:27.253Z,0.30
2019-02-16T06:25:55.113Z,0.30
2019-02-16T06:28:22.988Z,0.30
2019-02-16T06:30:50.847Z,0.30
2019-02-16T06:33:18.726Z,0.20
2019-02-16T06:35:52.251Z,0.20
2019-02-16T06:38:20.083Z,0.10
2019-02-16T06:40:48.197Z,0.20
2019-02-16T06:43:16.320Z,0.20
2019-02-16T06:45:44.853Z,0.10
2019-02-16T06:48:12.770Z,0.10
2019-02-16T06:50:40.636Z,0.00
2019-02-16T06:53:13.289Z,0.10
2019-02-16T06:55:43.840Z,0.10
2019-02-16T06:58:11.654Z,0.10
2019-02-16T07:00:39.526Z,0.10
2019-02-16T07:03:07.404Z,0.20
2019-02-16T07:05:35.273Z,0.20
2019-02-16T07:08:03.188Z,0.30
2019-02-16T07:10:31.076Z,0.40
2019-02-16T07:12:58.905Z,0.50
2019-02-16T07:15:26.797Z,0.60
2019-02-16T07:18:01.901Z,0.60
2019-02-16T07:20:29.758Z,0.70
2019-02-16T07:22:57.595Z,0.80
2019-02-16T07:25:25.457Z,0.90
2019-02-16T07:27:53.299Z,1.00
2019-02-16T07:30:21.122Z,1.00
2019-02-16T07:32:48.995Z,1.40
2019-02-16T07:35:16.861Z,2.50
2019-02-16T07:37:44.739Z,3.20
2019-02-16T07:40:13.993Z,3.60
2019-02-16T07:42:49.405Z,3.80
2019-02-16T07:45:38.228Z,4.20
2019-02-16T07:48:24.428Z,5.00
2019-02-16T07:50:56.911Z,5.50
2019-02-16T07:53:39.951Z,5.70
2019-02-16T07:56:14.042Z,5.70
2019-02-16T07:59:04.533Z,6.00
2019-02-16T08:01:58.094Z,6.20
2019-02-16T08:04:44.492Z,6.50
2019-02-16T08:07:38.047Z,6.80
2019-02-16T08:10:24.555Z,7.30
2019-02-16T08:13:17.946Z,7.90
2019-02-16T08:16:05.371Z,8.70
2019-02-16T08:18:56.000Z,10.40
2019-02-16T08:21:58.568Z,12.40
2019-02-16T08:25:01.279Z,13.90
2019-02-16T08:27:51.503Z,15.50
2019-02-16T08:30:50.994Z,16.80
2019-02-16T08:33:27.417Z,17.30
2019-02-16T08:36:01.957Z,17.70
2019-02-16T08:38:58.629Z,18.10
2019-02-16T08:41:44.649Z,18.80
2019-02-16T08:44:23.874Z,20.40
2019-02-16T08:47:17.391Z,21.60
2019-02-16T08:49:59.542Z,22.30
2019-02-16T08:52:52.983Z,23.10
2019-02-16T08:55:58.901Z,23.80
2019-02-16T08:58:48.789Z,24.50
2019-02-16T09:01:34.008Z,24.80
2019-02-16T09:04:17.609Z,25.10
2019-02-16T09:06:54.063Z,25.60
2019-02-16T09:09:41.558Z,26.10
2019-02-16T09:12:32.980Z,26.50
2019-02-16T09:15:26.895Z,26.90
2019-02-16T09:18:04.045Z,27.00
2019-02-16T09:20:44.339Z,26.90
2019-02-16T09:23:30.615Z,26.80
2019-02-16T09:26:30.368Z,26.70
2019-02-16T09:29:05.624Z,27.40
2019-02-16T09:31:48.181Z,28.40
2019-02-16T09:34:37.878Z,28.70
2019-02-16T09:37:23.021Z,28.50
2019-02-16T09:40:09.049Z,29.70
2019-02-16T09:42:42.996Z,30.40
2019-02-16T09:45:36.366Z,30.20
2019-02-16T09:48:19.602Z,30.60
2019-02-16T09:50:58.662Z,30.20
2019-02-16T09:53:58.338Z,29.10
2019-02-16T09:56:52.031Z,28.70
2019-02-16T09:59:42.649Z,28.70
2019-02-16T10:02:21.972Z,29.60
2019-02-16T10:05:00.744Z,29.70
2019-02-16T10:07:54.057Z,28.80
2019-02-16T10:10:41.666Z,29.80
2019-02-16T10:13:35.528Z,30.10
2019-02-16T10:16:11.422Z,31.10
2019-02-16T10:19:07.570Z,31.90
2019-02-16T10:22:03.804Z,30.60
2019-02-16T10:25:00.360Z,29.30
2019-02-16T10:27:42.731Z,28.90
2019-02-16T10:30:18.582Z,28.10
2019-02-16T10:32:57.384Z,28.40
2019-02-16T10:35:49.267Z,28.20
2019-02-16T10:38:40.201Z,28.50
2019-02-16T10:41:15.148Z,28.70
2019-02-16T10:44:01.152Z,28.70
2019-02-16T10:46:57.938Z,29.00
2019-02-16T10:49:54.212Z,28.00
2019-02-16T10:52:40.361Z,27.30
2019-02-16T10:55:30.646Z,26.60
2019-02-16T10:58:16.635Z,27.00
2019-02-16T11:01:19.549Z,26.70
2019-02-16T11:03:54.636Z,27.50
2019-02-16T11:06:42.136Z,27.00
2019-02-16T11:09:35.494Z,27.60
2019-02-16T11:12:20.075Z,27.80
2019-02-16T11:15:06.140Z,27.90
2019-02-16T11:17:53.616Z,26.40
2019-02-16T11:20:32.245Z,25.10
2019-02-16T11:23:34.928Z,24.10
2019-02-16T11:26:22.408Z,22.80
2019-02-16T11:29:11.114Z,22.10
2019-02-16T11:32:01.606Z,21.30
2019-02-16T11:34:40.799Z,20.90
2019-02-16T11:37:14.115Z,20.50
2019-02-16T11:39:53.851Z,20.10
2019-02-16T11:42:36.581Z,19.70
2019-02-16T11:45:23.081Z,19.40
2019-02-16T11:48:03.478Z,19.20
2019-02-16T11:51:06.016Z,18.60
2019-02-16T11:53:39.373Z,18.10
2019-02-16T11:56:31.540Z,17.90
2019-02-16T11:59:17.532Z,17.80
2019-02-16T12:02:10.192Z,17.50
2019-02-16T12:05:03.789Z,17.40
2019-02-16T12:07:46.270Z,17.20
2019-02-16T12:10:33.701Z,16.90
2019-02-16T12:13:36.583Z,17.00
2019-02-16T12:16:27.320Z,17.00
2019-02-16T12:19:17.619Z,16.70
2019-02-16T12:21:59.361Z,16.60
2019-02-16T12:25:04.695Z,16.60
2019-02-16T12:27:45.332Z,16.60
2019-02-16T12:30:47.845Z,16.60
2019-02-16T12:33:34.387Z,16.50
2019-02-16T12:36:33.773Z,16.40
2019-02-16T12:39:24.000Z,16.40
2019-02-16T12:42:01.732Z,16.50
2019-02-16T12:44:49.215Z,16.40
2019-02-16T12:47:39.840Z,16.40
2019-02-16T12:50:27.257Z,16.20
2019-02-16T12:53:20.767Z,16.20
2019-02-16T12:56:06.810Z,16.10
2019-02-16T12:58:41.282Z,16.30
2019-02-16T13:01:14.654Z,16.20
2019-02-16T13:04:02.214Z,16.20
2019-02-16T13:06:49.674Z,16.20
2019-02-16T13:09:27.464Z,16.20
2019-02-16T13:12:24.095Z,16.20
2019-02-16T13:15:14.443Z,16.20
2019-02-16T13:18:04.771Z,16.10
2019-02-16T13:20:55.278Z,16.10
2019-02-16T13:23:40.562Z,16.10
2019-02-16T13:26:32.544Z,15.90
2019-02-16T13:29:22.836Z,15.90
2019-02-16T13:32:13.248Z,16.00
2019-02-16T13:34:56.375Z,16.00
2019-02-16T13:37:32.423Z,15.90
2019-02-16T13:40:38.014Z,15.90
2019-02-16T13:43:31.373Z,15.90
2019-02-16T13:46:17.099Z,15.80
2019-02-16T13:49:04.593Z,15.70
2019-02-16T13:51:37.623Z,15.70
2019-02-16T13:54:19.388Z,15.60
2019-02-16T13:57:00.393Z,15.60
2019-02-16T13:59:50.454Z,15.60
2019-02-16T14:02:31.341Z,15.60
2019-02-16T14:05:07.539Z,15.60
2019-02-16T14:07:57.726Z,15.50
2019-02-16T14:10:45.212Z,15.50
2019-02-16T14:13:35.868Z,15.50
2019-02-16T14:16:11.736Z,15.50
2019-02-16T14:18:39.597Z,15.50
2019-02-16T14:21:07.518Z,15.50
2019-02-16T14:23:35.394Z,15.60
2019-02-16T14:26:03.273Z,15.50
2019-02-16T14:28:31.358Z,15.60
2019-02-16T14:30:59.333Z,15.40
2019-02-16T14:33:27.213Z,15.40
2019-02-16T14:35:55.128Z,15.30
2019-02-16T14:38:48.433Z,15.30
2019-02-16T14:41:16.303Z,15.30
2019-02-16T14:43:44.176Z,15.20
2019-02-16T14:46:12.028Z,15.20
2019-02-16T14:48:39.891Z,15.20
2019-02-16T14:51:07.826Z,15.20
2019-02-16T14:53:35.771Z,15.10
2019-02-16T14:56:03.705Z,15.10
2019-02-16T14:58:31.554Z,15.10
2019-02-16T15:00:59.410Z,15.10
2019-02-16T15:03:27.464Z,15.20
2019-02-16T15:05:55.429Z,15.20
2019-02-16T15:08:23.327Z,15.10
2019-02-16T15:10:51.240Z,15.10
2019-02-16T15:13:19.180Z,15.10
2019-02-16T15:15:47.086Z,15.00
2019-02-16T15:18:14.988Z,15.10
2019-02-16T15:20:42.887Z,14.90
2019-02-16T15:23:10.778Z,14.90
2019-02-16T15:25:38.775Z,14.80
2019-02-16T15:28:06.651Z,14.70
2019-02-16T15:30:34.565Z,14.60
2019-02-16T15:33:02.426Z,14.70
2019-02-16T15:35:30.286Z,14.70
2019-02-16T15:37:58.143Z,14.70
2019-02-16T15:40:26.076Z,14.70
2019-02-16T15:42:53.902Z,14.60
2019-02-16T15:45:21.839Z,14.70
2019-02-16T15:47:49.749Z,14.70
2019-02-16T15:50:17.645Z,14.70
2019-02-16T15:52:45.538Z,14.60
2019-02-16T15:55:13.417Z,14.60
2019-02-16T15:57:41.286Z,14.50
2019-02-16T16:00:17.408Z,14.40
2019-02-16T16:02:45.357Z,14.40
2019-02-16T16:05:13.378Z,14.30
2019-02-16T16:07:43.525Z,14.20
2019-02-16T16:10:28.086Z,14.10
2019-02-16T16:13:09.404Z,14.10
2019-02-16T16:16:00.139Z,14.00
2019-02-16T16:18:50.474Z,14.00
2019-02-16T16:21:36.599Z,14.00
2019-02-16T16:24:26.011Z,13.90
2019-02-16T16:27:16.524Z,13.70
2019-02-16T16:30:19.404Z,13.60
2019-02-16T16:33:06.922Z,13.50
2019-02-16T16:36:09.455Z,13.30
2019-02-16T16:38:46.773Z,13.20
2019-02-16T16:41:33.239Z,13.00
2019-02-16T16:44:07.595Z,13.00
2019-02-16T16:46:55.118Z,13.10
2019-02-16T16:49:38.920Z,13.10
2019-02-16T16:52:15.010Z,12.90
2019-02-16T16:54:51.281Z,12.80
2019-02-16T16:57:38.858Z,12.70
2019-02-16T17:00:25.729Z,12.60
2019-02-16T17:03:28.270Z,12.30
2019-02-16T17:06:18.568Z,12.10
2019-02-16T17:09:04.712Z,11.80
2019-02-16T17:11:58.670Z,11.60
2019-02-16T17:14:58.142Z,11.40
2019-02-16T17:17:45.672Z,11.20
2019-02-16T17:20:24.936Z,11.10
2019-02-16T17:23:02.666Z,10.90
2019-02-16T17:25:52.842Z,10.80
2019-02-16T17:28:42.242Z,10.60
2019-02-16T17:31:24.404Z,10.30
2019-02-16T17:34:20.576Z,10.20
2019-02-16T17:37:05.085Z,10.30
2019-02-16T17:39:58.815Z,10.30
2019-02-16T17:42:58.372Z,10.20
2019-02-16T17:45:44.573Z,10.00
2019-02-16T17:48:30.777Z,9.70
2019-02-16T17:51:19.564Z,9.70
2019-02-16T17:54:08.410Z,9.70
2019-02-16T17:57:04.071Z,9.50
2019-02-16T17:59:40.434Z,9.30
2019-02-16T18:02:34.233Z,9.10
2019-02-16T18:05:18.133Z,9.00
2019-02-16T18:08:20.833Z,9.00
2019-02-16T18:10:59.829Z,8.90
2019-02-16T18:13:39.503Z,8.60
2019-02-16T18:16:35.980Z,8.50
2019-02-16T18:19:26.434Z,8.30
2019-02-16T18:22:06.232Z,8.20
2019-02-16T18:25:02.545Z,8.00
2019-02-16T18:27:40.841Z,7.90
2019-02-16T18:30:28.331Z,7.80
2019-02-16T18:33:08.203Z,7.70
2019-02-16T18:36:02.160Z,7.70
2019-02-16T18:38:48.047Z,7.70
2019-02-16T18:41:44.694Z,7.50
2019-02-16T18:44:41.005Z,7.50
2019-02-16T18:47:28.848Z,7.40
2019-02-16T18:50:13.081Z,7.30
2019-02-16T18:52:59.232Z,7.30
2019-02-16T18:55:45.586Z,7.20
2019-02-16T18:58:33.077Z,7.10
2019-02-16T19:01:19.287Z,7.00
2019-02-16T19:03:57.130Z,6.90
2019-02-16T19:06:47.412Z,6.80
2019-02-16T19:09:34.867Z,6.70
2019-02-16T19:12:31.280Z,6.70
2019-02-16T19:15:24.644Z,6.70
2019-02-16T19:18:04.492Z,6.80
2019-02-16T19:21:01.310Z,6.70
2019-02-16T19:23:54.605Z,6.60
2019-02-16T19:26:51.102Z,6.50
2019-02-16T19:29:44.589Z,6.60
2019-02-16T19:32:31.065Z,6.50
2019-02-16T19:35:17.292Z,6.40
2019-02-16T19:37:56.871Z,6.40
2019-02-16T19:40:33.033Z,6.20
2019-02-16T19:43:23.180Z,6.10
2019-02-16T19:46:19.434Z,6.10
2019-02-16T19:49:06.966Z,6.00
2019-02-16T19:52:06.351Z,6.00
2019-02-16T19:54:50.369Z,5.90
2019-02-16T19:57:29.328Z,5.90
2019-02-16T20:00:16.817Z,5.80
2019-02-16T20:03:04.277Z,5.80
2019-02-16T20:06:01.263Z,5.70
2019-02-16T20:08:44.076Z,5.80
2019-02-16T20:11:30.296Z,5.70
2019-02-16T20:14:18.296Z,5.50
2019-02-16T20:17:18.155Z,5.40
2019-02-16T20:20:23.763Z,5.20
2019-02-16T20:23:17.233Z,5.20
2019-02-16T20:26:03.420Z,5.10
2019-02-16T20:29:06.056Z,5.00
2019-02-16T20:31:59.914Z,5.10
2019-02-16T20:34:38.215Z,5.00
2019-02-16T20:37:31.829Z,4.90
2019-02-16T20:40:20.831Z,4.90
2019-02-16T20:43:20.376Z,4.80
2019-02-16T20:46:07.862Z,4.70
2019-02-16T20:48:48.598Z,4.80
2019-02-16T20:51:27.634Z,4.70
2019-02-16T20:54:15.135Z,4.90
2019-02-16T20:56:59.051Z,4.80
2019-02-16T20:59:49.795Z,4.70
2019-02-16T21:02:46.313Z,4.70
2019-02-16T21:05:45.663Z,4.60
2019-02-16T21:08:22.233Z,4.50
2019-02-16T21:11:06.840Z,4.50
2019-02-16T21:13:57.368Z,4.40
2019-02-16T21:16:47.508Z,4.40
2019-02-16T21:19:40.872Z,4.20
2019-02-16T21:22:37.539Z,4.20
2019-02-16T21:25:14.897Z,4.10
2019-02-16T21:27:57.753Z,4.30
2019-02-16T21:30:34.553Z,4.20
2019-02-16T21:33:36.371Z,4.00
2019-02-16T21:36:13.746Z,4.00
2019-02-16T21:39:02.755Z,3.80
2019-02-16T21:41:42.867Z,3.80
2019-02-16T21:44:30.322Z,3.80
2019-02-16T21:47:26.658Z,3.80
2019-02-16T21:50:26.206Z,4.10
2019-02-16T21:53:21.662Z,3.90
2019-02-16T21:56:07.993Z,3.80
2019-02-16T21:58:55.623Z,3.90
2019-02-16T22:01:58.252Z,4.00
2019-02-16T22:04:35.736Z,4.00
2019-02-16T22:07:11.259Z,4.00
2019-02-16T22:09:58.081Z,4.00
2019-02-16T22:12:48.362Z,4.00
2019-02-16T22:15:16.247Z,3.80
2019-02-16T22:17:44.128Z,3.80
2019-02-16T22:20:12.033Z,3.60
2019-02-16T22:22:39.928Z,3.50
2019-02-16T22:25:07.914Z,3.40
2019-02-16T22:27:35.806Z,3.50
2019-02-16T22:30:04.265Z,3.50
2019-02-16T22:32:32.139Z,3.40
2019-02-16T22:35:00.051Z,3.50
2019-02-16T22:37:28.016Z,3.40
2019-02-16T22:39:55.913Z,3.40
2019-02-16T22:42:23.888Z,3.30
2019-02-16T22:44:51.735Z,3.20
2019-02-16T22:47:19.663Z,3.20
2019-02-16T22:49:47.504Z,3.10
2019-02-16T22:52:15.352Z,3.00
2019-02-16T22:54:43.301Z,2.90
2019-02-16T22:57:11.185Z,3.00
2019-02-16T22:59:39.046Z,2.90
2019-02-16T23:02:08.669Z,2.90
2019-02-16T23:04:36.674Z,2.90
2019-02-16T23:07:04.691Z,2.80
2019-02-16T23:09:32.613Z,2.80
2019-02-16T23:12:00.912Z,2.80
2019-02-16T23:14:28.803Z,2.80
2019-02-16T23:16:56.933Z,2.70
2019-02-16T23:19:24.814Z,2.70
2019-02-16T23:21:52.727Z,2.60
2019-02-16T23:24:20.620Z,2.60
2019-02-16T23:26:48.500Z,2.60
2019-02-16T23:29:16.378Z,2.60
2019-02-16T23:31:44.253Z,2.50
2019-02-16T23:34:12.128Z,2.50
2019-02-16T23:36:40.163Z,2.50
2019-02-16T23:39:08.968Z,2.50
2019-02-16T23:41:36.831Z,2.40
2019-02-16T23:44:05.056Z,2.50
2019-02-16T23:46:32.978Z,2.60
2019-02-16T23:49:00.857Z,2.70
2019-02-16T23:51:28.714Z,2.60
2019-02-16T23:53:56.960Z,2.70
2019-02-16T23:56:24.877Z,2.70
2019-02-16T23:58:52.823Z,2.50
